createdAt,value
2023-01-01T00:00:07.922Z,100706.31
2023-01-01T00:02:37.833Z,100707.59
2023-01-01T00:05:06.283Z,100716.72
2023-01-01T00:07:33.874Z,100729.22
2023-01-01T00:10:18.988Z,100722.00
2023-01-01T00:12:46.391Z,100724.75
2023-01-01T00:15:15.297Z,100731.44
2023-01-01T00:17:45.170Z,100732.66
2023-01-01T00:20:13.465Z,100731.69
2023-01-01T00:22:54.460Z,100743.19
2023-01-01T00:25:22.830Z,100741.25
2023-01-01T00:27:50.509Z,100748.31
2023-01-01T00:30:19.533Z,100738.63
2023-01-01T00:32:55.162Z,100743.19
2023-01-01T00:35:24.091Z,100757.19
2023-01-01T00:37:51.583Z,100758.84
2023-01-01T00:40:19.096Z,100747.63
2023-01-01T00:42:46.516Z,100744.31
2023-01-01T00:45:20.604Z,100753.03
2023-01-01T00:47:51.299Z,100750.28
2023-01-01T00:50:18.899Z,100747.50
2023-01-01T00:52:46.893Z,100746.66
2023-01-01T00:55:14.392Z,100752.66
2023-01-01T00:57:42.058Z,100758.63
2023-01-01T01:00:11.129Z,100746.50
2023-01-01T01:02:38.802Z,100750.72
2023-01-01T01:05:09.062Z,100754.19
2023-01-01T01:07:37.318Z,100759.31
2023-01-01T01:10:05.464Z,100758.06
2023-01-01T01:12:34.718Z,100769.84
2023-01-01T01:15:02.455Z,100763.47
2023-01-01T01:17:30.364Z,100765.13
2023-01-01T01:19:57.838Z,100766.94
2023-01-01T01:22:28.889Z,100776.78
2023-01-01T01:24:56.816Z,100770.25
2023-01-01T01:27:24.500Z,100763.03
2023-01-01T01:29:52.135Z,100773.44
2023-01-01T01:32:19.601Z,100757.63
2023-01-01T01:34:47.443Z,100767.34
2023-01-01T01:37:15.504Z,100776.06
2023-01-01T01:39:45.944Z,100770.66
2023-01-01T01:42:18.362Z,100762.75
2023-01-01T01:44:57.905Z,100780.50
2023-01-01T01:47:30.735Z,100766.25
2023-01-01T01:50:03.679Z,100766.13
2023-01-01T01:52:34.261Z,100767.06
2023-01-01T01:55:05.205Z,100770.53
2023-01-01T01:57:34.693Z,100779.28
2023-01-01T02:00:10.632Z,100771.38
2023-01-01T02:02:43.334Z,100760.00
2023-01-01T02:05:10.973Z,100766.13
2023-01-01T02:07:39.112Z,100781.78
2023-01-01T02:10:07.585Z,100777.06
2023-01-01T02:12:36.425Z,100772.47
2023-01-01T02:15:04.466Z,100781.34
2023-01-01T02:17:39.310Z,100774.97
2023-01-01T02:20:30.231Z,100777.75
2023-01-01T02:23:18.148Z,100781.34
2023-01-01T02:26:02.263Z,100786.47
2023-01-01T02:28:45.158Z,100769.97
2023-01-01T02:31:22.998Z,100774.44
2023-01-01T02:33:54.410Z,100772.75
2023-01-01T02:36:24.463Z,100774.56
2023-01-01T02:38:55.733Z,100784.97
2023-01-01T02:41:28.375Z,100775.38
2023-01-01T02:48:52.100Z,100759.59
2023-01-01T02:51:30.161Z,100772.06
2023-01-01T02:54:02.946Z,100764.72
2023-01-01T02:56:38.575Z,100778.28
2023-01-01T02:59:36.041Z,100760.72
2023-01-01T03:02:13.695Z,100758.22
2023-01-01T03:04:53.376Z,100769.28
2023-01-01T03:07:27.939Z,100759.84
2023-01-01T03:10:01.757Z,100762.50
2023-01-01T03:12:40.411Z,100756.41
2023-01-01T03:15:16.523Z,100759.03
2023-01-01T03:17:50.732Z,100760.56
2023-01-01T03:20:23.012Z,100772.75
2023-01-01T03:22:54.230Z,100766.94
2023-01-01T03:25:24.708Z,100779.97
2023-01-01T03:27:57.363Z,100800.22
2023-01-01T03:30:27.203Z,100777.59
2023-01-01T03:33:04.263Z,100784.69
2023-01-01T03:35:38.823Z,100777.75
2023-01-01T03:38:11.905Z,100780.50
2023-01-01T03:40:40.679Z,100771.66
2023-01-01T03:43:15.051Z,100781.63
2023-01-01T03:45:48.760Z,100776.38
2023-01-01T03:48:16.298Z,100771.34
2023-01-01T03:50:57.031Z,100783.94
2023-01-01T03:53:34.374Z,100778.81
2023-01-01T03:56:09.240Z,100777.56
2023-01-01T03:58:44.377Z,100775.91
2023-01-01T04:01:18.511Z,100790.97
2023-01-01T04:03:47.751Z,100802.63
2023-01-01T04:06:15.884Z,100800.81
2023-01-01T04:08:43.524Z,100807.75
2023-01-01T04:11:30.074Z,100804.97
2023-01-01T04:13:57.575Z,100823.28
2023-01-01T04:16:26.434Z,100810.66
2023-01-01T04:18:53.912Z,100811.03
2023-01-01T04:21:21.404Z,100824.19
2023-01-01T04:23:48.907Z,100825.03
2023-01-01T04:26:16.896Z,100825.88
2023-01-01T04:28:44.504Z,100837.09
2023-01-01T04:31:12.729Z,100831.28
2023-01-01T04:33:41.509Z,100827.22
2023-01-01T04:36:11.036Z,100832.75
2023-01-01T04:38:39.268Z,100838.44
2023-01-01T04:41:06.827Z,100837.03
2023-01-01T04:43:34.316Z,100846.44
2023-01-01T04:46:03.142Z,100840.78
2023-01-01T04:48:33.649Z,100838.97
2023-01-01T04:51:04.846Z,100841.16
2023-01-01T04:53:34.185Z,100846.44
2023-01-01T04:56:04.714Z,100850.56
2023-01-01T04:58:32.535Z,100847.66
2023-01-01T05:01:00.138Z,100853.03
2023-01-01T05:03:27.875Z,100851.38
2023-01-01T05:06:04.052Z,100850.94
2023-01-01T05:08:32.027Z,100856.91
2023-01-01T05:11:02.687Z,100862.13
2023-01-01T05:13:30.530Z,100850.66
2023-01-01T05:15:58.368Z,100854.22
2023-01-01T05:18:25.917Z,100857.63
2023-01-01T05:20:53.668Z,100858.59
2023-01-01T05:23:23.048Z,100858.75
2023-01-01T05:25:50.533Z,100856.63
2023-01-01T05:28:18.022Z,100860.47
2023-01-01T05:30:45.491Z,100861.44
2023-01-01T05:33:13.386Z,100860.75
2023-01-01T05:35:40.845Z,100868.38
2023-01-01T05:38:08.294Z,100861.44
2023-01-01T05:40:39.444Z,100875.41
2023-01-01T05:43:07.388Z,100881.50
2023-01-01T05:45:34.904Z,100873.75
2023-01-01T05:48:04.157Z,100871.69
2023-01-01T05:50:31.758Z,100871.69
2023-01-01T05:52:59.255Z,100861.06
2023-01-01T05:55:26.733Z,100874.91
2023-01-01T05:57:55.585Z,100881.22
2023-01-01T06:00:23.201Z,100874.06
2023-01-01T06:02:51.536Z,100878.47
2023-01-01T06:05:19.095Z,100869.63
2023-01-01T06:07:48.827Z,100886.38
2023-01-01T06:10:16.713Z,100877.78
2023-01-01T06:12:44.177Z,100882.91
2023-01-01T06:15:13.009Z,100869.88
2023-01-01T06:17:40.474Z,100886.66
2023-01-01T06:20:08.742Z,100874.19
2023-01-01T06:22:37.103Z,100885.66
2023-01-01T06:25:05.042Z,100899.50
2023-01-01T06:27:32.682Z,100879.22
2023-01-01T06:30:00.225Z,100893.19
2023-01-01T06:32:29.365Z,100903.81
2023-01-01T06:34:56.853Z,100911.47
2023-01-01T06:37:24.488Z,100914.09
2023-01-01T06:39:52.005Z,100908.13
2023-01-01T06:42:19.837Z,100919.34
2023-01-01T06:44:47.355Z,100909.66
2023-01-01T06:47:14.815Z,100921.84
2023-01-01T06:49:43.669Z,100919.22
2023-01-01T06:52:11.169Z,100931.38
2023-01-01T06:54:38.671Z,100918.91
2023-01-01T06:57:06.290Z,100936.78
2023-01-01T06:59:34.057Z,100932.38
2023-01-01T07:02:07.318Z,100929.63
2023-01-01T07:04:51.207Z,100926.25
2023-01-01T07:07:35.882Z,100917.53
2023-01-01T07:10:12.044Z,100937.19
2023-01-01T07:19:03.714Z,100936.06
2023-01-01T07:21:50.435Z,100952.63
2023-01-01T07:24:29.597Z,100954.03
2023-01-01T07:27:07.650Z,100955.13
2023-01-01T07:29:45.643Z,100959.53
2023-01-01T07:32:25.968Z,100959.22
2023-01-01T07:34:59.116Z,100951.66
2023-01-01T07:37:49.038Z,100966.03
2023-01-01T07:40:31.101Z,100965.66
2023-01-01T07:43:18.417Z,100982.72
2023-01-01T07:49:48.595Z,100972.44
2023-01-01T07:58:49.396Z,100989.03
2023-01-01T08:04:18.117Z,101017.00
2023-01-01T09:03:35.445Z,101037.00
2023-01-01T09:06:17.182Z,101055.28
2023-01-01T09:09:32.750Z,101042.66
2023-01-01T09:13:07.441Z,101052.53
2023-01-01T09:20:44.767Z,101066.00
2023-01-01T09:29:51.854Z,101087.63
2023-01-01T09:32:40.517Z,101092.66
2023-01-01T09:35:11.055Z,101087.25
2023-01-01T09:54:13.128Z,101093.78
2023-01-01T09:56:46.814Z,101085.22
2023-01-01T10:02:37.993Z,101101.91
2023-01-01T10:05:29.394Z,101094.50
2023-01-01T10:08:42.427Z,101110.84
2023-01-01T10:11:19.578Z,101106.59
2023-01-01T10:13:48.867Z,101115.97
2023-01-01T10:16:25.333Z,101106.81
2023-01-01T10:18:55.973Z,101115.16
2023-01-01T10:21:28.398Z,101120.19
2023-01-01T10:24:00.789Z,101122.81
2023-01-01T10:26:32.871Z,101113.69
2023-01-01T10:29:05.259Z,101119.91
2023-01-01T10:31:35.252Z,101117.97
2023-01-01T10:34:12.856Z,101120.19
2023-01-01T10:36:40.557Z,101123.13
2023-01-01T10:39:08.562Z,101127.19
2023-01-01T10:41:37.524Z,101137.84
2023-01-01T10:44:06.973Z,101135.66
2023-01-01T10:46:59.078Z,101150.03
2023-01-01T10:49:27.447Z,101153.25
2023-01-01T10:51:55.861Z,101152.69
2023-01-01T10:54:35.499Z,101145.50
2023-01-01T10:57:17.507Z,101147.72
2023-01-01T11:00:07.276Z,101139.69
2023-01-01T11:02:37.835Z,101148.81
2023-01-01T11:05:21.666Z,101145.09
2023-01-01T11:07:50.573Z,101136.22
2023-01-01T11:10:21.011Z,101131.25
2023-01-01T11:13:06.648Z,101144.44
2023-01-01T11:15:38.603Z,101159.16
2023-01-01T11:18:11.773Z,101153.03
2023-01-01T11:20:39.550Z,101164.16
2023-01-01T11:23:29.403Z,101167.63
2023-01-01T11:26:02.664Z,101169.03
2023-01-01T11:28:34.457Z,101180.28
2023-01-01T11:31:11.176Z,101187.88
2023-01-01T11:33:44.595Z,101193.13
2023-01-01T11:36:12.975Z,101202.97
2023-01-01T11:38:40.717Z,101188.84
2023-01-01T11:41:09.633Z,101173.03
2023-01-01T11:43:56.869Z,101181.06
2023-01-01T11:46:25.667Z,101179.13
2023-01-01T11:48:55.457Z,101174.69
2023-01-01T11:51:32.319Z,101163.44
2023-01-01T11:54:32.742Z,101167.78
2023-01-01T11:57:08.717Z,101155.16
2023-01-01T11:59:44.683Z,101165.69
2023-01-01T12:02:16.360Z,101177.78
2023-01-01T12:04:50.228Z,101169.59
2023-01-01T12:07:24.027Z,101179.06
2023-01-01T12:09:59.221Z,101175.91
2023-01-01T12:12:32.567Z,101184.25
2023-01-01T12:15:05.349Z,101180.50
2023-01-01T12:17:35.675Z,101182.88
2023-01-01T12:20:09.775Z,101197.59
2023-01-01T12:22:37.467Z,101198.81
2023-01-01T12:25:06.447Z,101200.91
2023-01-01T12:27:48.089Z,101196.19
2023-01-01T12:30:26.005Z,101192.34
2023-01-01T12:33:23.114Z,101203.69
2023-01-01T12:36:03.457Z,101196.34
2023-01-01T12:38:48.786Z,101202.63
2023-01-01T12:41:27.058Z,101194.28
2023-01-01T12:44:05.720Z,101193.41
2023-01-01T12:46:47.906Z,101188.16
2023-01-01T12:49:36.944Z,101181.91
2023-01-01T12:52:22.394Z,101170.53
2023-01-01T12:55:10.362Z,101166.75
2023-01-01T12:57:47.501Z,101174.66
2023-01-01T13:00:19.842Z,101163.16
2023-01-01T13:02:53.860Z,101164.66
2023-01-01T13:05:25.062Z,101173.13
2023-01-01T13:07:59.530Z,101190.03
2023-01-01T13:10:30.824Z,101177.00
2023-01-01T13:12:58.740Z,101177.25
2023-01-01T13:15:48.561Z,101186.72
2023-01-01T13:18:26.767Z,101190.03
2023-01-01T13:21:08.508Z,101178.66
2023-01-01T13:23:51.171Z,101194.50
2023-01-01T13:26:37.808Z,101201.69
2023-01-01T13:29:34.899Z,101198.59
2023-01-01T13:32:10.824Z,101204.72
2023-01-01T13:38:05.062Z,101229.53
2023-01-01T13:40:50.999Z,101227.28
2023-01-01T13:43:35.603Z,101226.56
2023-01-01T13:46:14.846Z,101239.75
2023-01-01T13:49:23.716Z,101242.78
2023-01-01T13:52:12.757Z,101246.63
2023-01-01T13:55:17.712Z,101253.13
2023-01-01T13:58:15.871Z,101254.47
2023-01-01T14:00:56.729Z,101269.34
2023-01-01T14:03:32.466Z,101264.19
2023-01-01T14:06:07.919Z,101269.97
2023-01-01T14:08:38.439Z,101269.13
2023-01-01T14:11:20.753Z,101278.00
2023-01-01T14:16:35.760Z,101294.50
2023-01-01T14:19:12.712Z,101277.16
2023-01-01T14:21:42.317Z,101292.97
2023-01-01T14:24:16.483Z,101296.22
2023-01-01T14:26:44.992Z,101299.94
2023-01-01T14:29:21.188Z,101285.94
2023-01-01T14:31:49.834Z,101288.44
2023-01-01T14:34:26.648Z,101292.03
2023-01-01T14:36:57.156Z,101293.13
2023-01-01T14:39:32.698Z,101292.31
2023-01-01T14:42:03.610Z,101296.72
2023-01-01T14:44:37.114Z,101287.50
2023-01-01T14:47:09.810Z,101293.00
2023-01-01T14:49:40.513Z,101294.81
2023-01-01T14:52:19.662Z,101292.44
2023-01-01T14:54:49.334Z,101299.59
2023-01-01T14:57:22.225Z,101311.94
2023-01-01T15:00:05.666Z,101314.69
2023-01-01T15:02:38.864Z,101314.56
2023-01-01T15:05:34.611Z,101318.19
2023-01-01T15:08:05.944Z,101319.97
2023-01-01T15:10:55.504Z,101314.09
2023-01-01T15:13:24.813Z,101313.41
2023-01-01T15:15:55.553Z,101322.25
2023-01-01T15:18:51.565Z,101325.13
2023-01-01T15:21:35.425Z,101326.22
2023-01-01T15:24:07.041Z,101328.84
2023-01-01T15:26:48.533Z,101325.38
2023-01-01T15:29:24.403Z,101344.53
2023-01-01T15:31:57.010Z,101342.84
2023-01-01T15:34:29.103Z,101348.09
2023-01-01T15:37:08.155Z,101356.00
2023-01-01T15:39:55.618Z,101368.34
2023-01-01T15:42:48.567Z,101358.88
2023-01-01T15:45:21.902Z,101353.97
2023-01-01T15:47:50.860Z,101362.13
2023-01-01T15:50:27.241Z,101369.28
2023-01-01T15:53:06.989Z,101368.59
2023-01-01T15:55:37.811Z,101373.03
2023-01-01T15:58:07.700Z,101387.72
2023-01-01T16:00:50.887Z,101381.75
2023-01-01T16:03:25.083Z,101380.31
2023-01-01T16:05:55.435Z,101373.38
2023-01-01T16:08:23.969Z,101376.94
2023-01-01T16:10:54.260Z,101385.59
2023-01-01T16:13:27.907Z,101383.91
2023-01-01T16:16:02.521Z,101377.06
2023-01-01T16:18:31.952Z,101390.22
2023-01-01T16:20:59.959Z,101385.94
2023-01-01T16:23:27.940Z,101391.09
2023-01-01T16:25:55.461Z,101378.16
2023-01-01T16:28:24.487Z,101381.75
2023-01-01T16:30:52.156Z,101369.69
2023-01-01T16:33:22.620Z,101370.75
2023-01-01T16:35:50.467Z,101370.16
2023-01-01T16:38:19.349Z,101374.59
2023-01-01T16:40:46.890Z,101380.91
2023-01-01T16:43:17.383Z,101389.03
2023-01-01T16:45:46.704Z,101381.38
2023-01-01T16:48:14.277Z,101386.16
2023-01-01T16:50:41.828Z,101383.88
2023-01-01T16:53:09.439Z,101383.16
2023-01-01T16:55:36.961Z,101397.13
2023-01-01T16:58:46.897Z,101392.72
2023-01-01T17:00:59.983Z,101403.38
2023-01-01T17:03:28.119Z,101402.50
2023-01-01T17:05:55.742Z,101414.84
2023-01-01T17:08:23.297Z,101424.66
2023-01-01T17:10:56.202Z,101424.16
2023-01-01T17:13:26.524Z,101424.63
2023-01-01T17:15:57.653Z,101420.19
2023-01-01T17:18:55.269Z,101432.09
2023-01-01T17:21:12.819Z,101422.63
2023-01-01T17:23:42.298Z,101433.25
2023-01-01T17:26:11.871Z,101445.53
2023-01-01T17:28:40.215Z,101435.00
2023-01-01T17:31:11.803Z,101432.38
2023-01-01T17:33:40.911Z,101426.19
2023-01-01T17:36:10.632Z,101440.09
2023-01-01T17:38:38.431Z,101430.44
2023-01-01T17:41:08.630Z,101426.09
2023-01-01T17:43:38.609Z,101431.38
2023-01-01T17:46:08.258Z,101425.38
2023-01-01T17:48:37.474Z,101418.53
2023-01-01T17:51:05.555Z,101421.25
2023-01-01T17:53:33.126Z,101423.19
2023-01-01T17:56:01.010Z,101424.13
2023-01-01T17:58:32.154Z,101429.59
2023-01-01T18:01:17.082Z,101433.53
2023-01-01T18:03:46.104Z,101437.47
2023-01-01T18:06:13.682Z,101423.56
2023-01-01T18:08:41.773Z,101429.91
2023-01-01T18:11:09.436Z,101433.47
2023-01-01T18:13:38.341Z,101424.16
2023-01-01T18:16:08.717Z,101425.91
2023-01-01T18:18:38.352Z,101427.84
2023-01-01T18:21:11.018Z,101429.97
2023-01-01T18:23:40.222Z,101428.38
2023-01-01T18:26:09.858Z,101425.03
2023-01-01T18:28:38.206Z,101434.00
2023-01-01T18:31:06.241Z,101427.69
2023-01-01T18:33:35.725Z,101436.88
2023-01-01T18:36:05.538Z,101431.81
2023-01-01T18:38:35.778Z,101435.28
2023-01-01T18:41:20.575Z,101425.25
2023-01-01T18:43:49.233Z,101425.47
2023-01-01T18:46:16.871Z,101435.34
2023-01-01T18:48:44.505Z,101434.59
2023-01-01T18:51:15.766Z,101437.56
2023-01-01T18:53:44.669Z,101427.06
2023-01-01T18:56:14.698Z,101436.09
2023-01-01T18:58:43.128Z,101437.88
2023-01-01T19:01:16.020Z,101441.56
2023-01-01T19:03:43.931Z,101443.25
2023-01-01T19:06:24.324Z,101446.91
2023-01-01T19:09:00.453Z,101447.13
2023-01-01T19:11:27.958Z,101449.75
2023-01-01T19:14:03.549Z,101446.81
2023-01-01T19:16:33.166Z,101440.00
2023-01-01T19:19:11.681Z,101441.81
2023-01-01T19:21:44.090Z,101446.91
2023-01-01T19:24:20.351Z,101456.91
2023-01-01T19:26:48.606Z,101442.00
2023-01-01T19:29:18.432Z,101457.84
2023-01-01T19:31:47.664Z,101436.16
2023-01-01T19:34:15.320Z,101435.38
2023-01-01T19:36:43.382Z,101446.09
2023-01-01T19:39:11.319Z,101435.94
2023-01-01T19:41:40.346Z,101431.59
2023-01-01T19:44:10.477Z,101437.25
2023-01-01T19:46:39.811Z,101442.69
2023-01-01T19:49:07.382Z,101437.44
2023-01-01T19:51:36.013Z,101440.28
2023-01-01T19:54:03.577Z,101431.47
2023-01-01T19:56:31.115Z,101436.00
2023-01-01T19:58:59.984Z,101429.78
2023-01-01T20:01:27.675Z,101434.84
2023-01-01T20:03:57.869Z,101426.75
2023-01-01T20:06:26.366Z,101423.09
2023-01-01T20:08:54.530Z,101413.53
2023-01-01T20:11:22.299Z,101425.94
2023-01-01T20:13:49.913Z,101423.41
2023-01-01T20:16:18.894Z,101417.34
2023-01-01T20:18:48.066Z,101412.50
2023-01-01T20:21:33.433Z,101413.44
2023-01-01T20:24:01.071Z,101412.50
2023-01-01T20:26:28.662Z,101411.78
2023-01-01T20:29:13.834Z,101412.81
2023-01-01T20:31:42.890Z,101399.69
2023-01-01T20:34:10.777Z,101403.16
2023-01-01T20:36:56.286Z,101399.06
2023-01-01T20:39:24.033Z,101404.22
2023-01-01T20:41:51.682Z,101400.53
2023-01-01T20:44:19.649Z,101390.03
2023-01-01T20:46:49.649Z,101389.19
2023-01-01T20:49:19.283Z,101393.50
2023-01-01T20:51:47.962Z,101399.16
2023-01-01T20:54:15.650Z,101397.47
2023-01-01T20:56:43.180Z,101392.47
2023-01-01T20:59:33.591Z,101372.94
2023-01-01T21:02:01.375Z,101372.94
2023-01-01T21:04:29.125Z,101371.25
2023-01-01T21:06:56.697Z,101370.53
2023-01-01T21:09:24.338Z,101381.75
2023-01-01T21:11:51.900Z,101376.50
2023-01-01T21:14:22.315Z,101381.53
2023-01-01T21:16:52.994Z,101383.22
2023-01-01T21:19:26.678Z,101378.81
2023-01-01T21:21:57.002Z,101379.88
2023-01-01T21:24:27.931Z,101380.72
2023-01-01T21:27:01.273Z,101355.53
2023-01-01T21:29:33.184Z,101365.69
2023-01-01T21:32:13.575Z,101367.38
2023-01-01T21:34:43.915Z,101366.31
2023-01-01T21:37:37.162Z,101368.84
2023-01-01T21:40:47.801Z,101380.28
2023-01-01T21:43:39.413Z,101382.72
2023-01-01T21:46:18.693Z,101393.19
2023-01-01T21:48:56.040Z,101388.88
2023-01-01T21:51:26.792Z,101382.16
2023-01-01T21:54:01.992Z,101377.16
2023-01-01T21:56:31.830Z,101374.53
2023-01-01T21:59:28.448Z,101372.94
2023-01-01T22:02:09.177Z,101380.91
2023-01-01T22:04:40.318Z,101368.88
2023-01-01T22:10:15.542Z,101393.81
2023-01-01T22:12:43.540Z,101398.13
2023-01-01T22:15:28.895Z,101393.81
2023-01-01T22:18:13.963Z,101393.81
2023-01-01T22:20:43.495Z,101396.25
2023-01-01T22:23:23.609Z,101389.19
2023-01-01T22:25:52.388Z,101383.03
2023-01-01T22:28:23.184Z,101393.41
2023-01-01T22:30:53.916Z,101375.06
2023-01-01T22:33:26.916Z,101377.69
2023-01-01T22:35:56.109Z,101378.41
2023-01-01T22:38:33.248Z,101378.41
2023-01-01T22:41:00.882Z,101380.09
2023-01-01T22:43:32.981Z,101377.47
2023-01-01T22:46:05.774Z,101372.94
2023-01-01T22:48:36.113Z,101371.25
2023-01-01T22:51:08.519Z,101379.22
2023-01-01T22:53:37.327Z,101369.59
2023-01-01T22:56:05.127Z,101367.91
2023-01-01T22:58:32.636Z,101374.09
2023-01-01T23:01:00.174Z,101366.97
2023-01-01T23:03:27.885Z,101365.28
2023-01-01T23:05:55.842Z,101358.34
2023-01-01T23:08:24.866Z,101343.56
2023-01-01T23:10:54.950Z,101342.59
2023-01-01T23:13:40.407Z,101337.97
2023-01-01T23:16:08.449Z,101323.09
2023-01-01T23:18:37.807Z,101322.13
2023-01-01T23:21:09.473Z,101316.78
2023-01-01T23:23:38.667Z,101310.00
2023-01-01T23:26:09.398Z,101317.13
2023-01-01T23:28:37.986Z,101318.06
2023-01-01T23:31:08.863Z,101313.75
2023-01-01T23:33:36.795Z,101307.56
2023-01-01T23:36:05.323Z,101310.19
2023-01-01T23:38:33.295Z,101303.88
2023-01-01T23:41:01.444Z,101300.94
2023-01-01T23:43:30.361Z,101292.25
2023-01-01T23:45:58.158Z,101279.84
2023-01-01T23:48:26.021Z,101290.97
2023-01-01T23:50:53.555Z,101283.94
2023-01-01T23:53:21.036Z,101293.28
2023-01-01T23:55:48.776Z,101292.47
2023-01-01T23:58:17.034Z,101281.13
